Time;durP1;ratioP1;P1;durP2;ratioP2;P2;SDS_P1;SDS_P2;PMS_P1;PMS_P2;Temp;Humidity;BMP_temperature;BMP_pressure;BME280_temperature;BME280_humidity;BME280_pressure;Samples;Min_cycle;Max_cycle;Signal;HPM_P1;HPM_P2
2023/01/07 00:00:09;;;;;;;4.07;2.80;;;7.60;99.90;;;;;;4202788;28;20494;-79
2023/01/07 00:02:11;;;;;;;3.27;2.67;;;7.60;99.90;;;;;;4195125;28;20458;-78
2023/01/07 00:04:16;;;;;;;4.47;3.00;;;7.60;99.90;;;;;;4196414;28;20497;-77
2023/01/07 00:06:20;;;;;;;4.80;2.70;;;7.60;99.90;;;;;;4200433;28;20475;-79
2023/01/07 00:08:21;;;;;;;3.73;2.60;;;7.50;99.90;;;;;;4201478;28;20550;-78
2023/01/07 00:10:23;;;;;;;4.53;2.87;;;7.60;99.90;;;;;;4201985;28;20458;-79
2023/01/07 00:12:25;;;;;;;7.37;2.93;;;7.60;99.90;;;;;;4201534;28;20559;-78
2023/01/07 00:14:27;;;;;;;3.93;3.03;;;7.60;99.90;;;;;;4210296;28;20550;-79
2023/01/07 00:16:30;;;;;;;6.23;3.37;;;7.60;99.90;;;;;;4212973;28;20893;-78
2023/01/07 00:18:33;;;;;;;3.27;2.50;;;7.60;99.90;;;;;;4211277;28;20462;-78
2023/01/07 00:20:36;;;;;;;6.70;3.37;;;7.50;99.90;;;;;;4211375;28;20537;-78
2023/01/07 00:22:38;;;;;;;5.03;3.10;;;7.60;99.90;;;;;;4210675;28;21196;-78
2023/01/07 00:24:40;;;;;;;4.80;3.40;;;7.50;99.90;;;;;;4202190;28;20483;-77
2023/01/07 00:26:41;;;;;;;4.30;3.10;;;7.50;99.90;;;;;;4205190;28;20478;-78
2023/01/07 00:28:45;;;;;;;4.47;3.10;;;7.50;99.90;;;;;;4206106;28;20455;-79
2023/01/07 00:30:47;;;;;;;5.17;3.30;;;7.50;99.90;;;;;;4203724;28;20905;-79
2023/01/07 00:32:58;;;;;;;6.33;3.50;;;7.50;99.90;;;;;;4200690;28;20490;-79
2023/01/07 00:35:00;;;;;;;5.90;3.73;;;7.50;99.90;;;;;;4205230;28;20525;-79
2023/01/07 00:39:20;;;;;;;5.13;3.40;;;7.60;99.90;;;;;;4205978;28;20527;-79
2023/01/07 00:41:22;;;;;;;5.97;3.50;;;7.60;99.90;;;;;;4203112;28;21018;-78
2023/01/07 00:43:24;;;;;;;4.70;3.23;;;7.60;99.90;;;;;;4203950;28;20935;-79
2023/01/07 00:45:27;;;;;;;6.57;3.60;;;7.60;99.90;;;;;;4203777;28;20480;-78
2023/01/07 00:47:29;;;;;;;5.23;3.33;;;7.60;99.90;;;;;;4204176;28;20471;-79
2023/01/07 00:49:30;;;;;;;5.33;3.00;;;7.50;99.90;;;;;;4203356;28;20477;-78
2023/01/07 00:51:32;;;;;;;4.80;3.30;;;7.60;99.90;;;;;;4204227;28;20479;-78
2023/01/07 00:53:36;;;;;;;5.47;3.07;;;7.50;99.90;;;;;;4203994;28;20449;-78
2023/01/07 00:55:38;;;;;;;4.30;2.93;;;7.50;99.90;;;;;;4204641;28;20994;-79
2023/01/07 00:57:40;;;;;;;4.43;2.33;;;7.40;99.90;;;;;;4204185;28;20550;-78
2023/01/07 00:59:41;;;;;;;4.40;3.00;;;7.40;99.90;;;;;;4205533;28;21055;-79
2023/01/07 01:01:43;;;;;;;3.77;2.77;;;7.40;99.90;;;;;;4204716;28;20971;-79
2023/01/07 01:03:45;;;;;;;4.00;3.10;;;7.40;99.90;;;;;;4204300;28;20585;-78
2023/01/07 01:05:47;;;;;;;5.70;3.00;;;7.40;99.90;;;;;;4202661;28;20985;-79
2023/01/07 01:07:49;;;;;;;4.40;3.00;;;7.30;99.90;;;;;;4202655;28;21072;-79
2023/01/07 01:09:53;;;;;;;5.43;3.13;;;7.30;99.90;;;;;;4203334;28;20470;-79
2023/01/07 01:11:54;;;;;;;4.37;3.33;;;7.30;99.90;;;;;;4199910;28;20541;-79
2023/01/07 01:13:56;;;;;;;10.27;3.40;;;7.20;99.90;;;;;;4207139;28;20532;-79
2023/01/07 01:15:59;;;;;;;3.67;2.83;;;7.20;99.90;;;;;;4202239;28;20454;-78
2023/01/07 01:18:01;;;;;;;5.23;3.20;;;7.30;99.90;;;;;;4200199;28;20549;-79
2023/01/07 01:20:03;;;;;;;5.40;3.17;;;7.20;99.90;;;;;;4200888;28;21140;-79
2023/01/07 01:22:05;;;;;;;4.90;3.30;;;7.20;99.90;;;;;;4203469;28;20518;-79
2023/01/07 01:24:08;;;;;;;6.60;3.40;;;7.10;99.90;;;;;;4201989;28;20966;-78
2023/01/07 01:26:13;;;;;;;3.70;2.63;;;7.10;99.90;;;;;;4204096;28;20455;-78
2023/01/07 01:28:15;;;;;;;4.53;3.10;;;7.00;99.90;;;;;;4203619;28;20893;-79
2023/01/07 01:30:17;;;;;;;4.83;2.70;;;7.10;99.90;;;;;;4201233;28;20471;-79
2023/01/07 01:32:19;;;;;;;4.13;3.03;;;7.00;99.90;;;;;;4203158;28;20446;-79
2023/01/07 01:34:21;;;;;;;4.43;3.00;;;7.00;99.90;;;;;;4204037;28;20527;-79
2023/01/07 01:36:24;;;;;;;4.80;2.90;;;7.00;99.90;;;;;;4202799;28;20471;-79
2023/01/07 01:38:26;;;;;;;3.73;2.70;;;7.00;99.90;;;;;;4201459;28;21154;-78
2023/01/07 01:40:29;;;;;;;5.63;3.23;;;7.00;99.90;;;;;;4206067;28;20486;-79
2023/01/07 01:42:33;;;;;;;5.47;3.23;;;6.90;99.90;;;;;;4209240;28;20463;-79
2023/01/07 01:44:40;;;;;;;5.33;2.90;;;6.90;99.90;;;;;;4207316;28;20497;-79
2023/01/07 01:46:45;;;;;;;4.33;2.70;;;6.90;99.90;;;;;;4206556;28;20554;-78
2023/01/07 01:48:50;;;;;;;4.80;3.00;;;6.90;99.90;;;;;;4204063;28;20898;-78
2023/01/07 01:50:52;;;;;;;4.40;2.87;;;7.00;99.90;;;;;;4198654;28;20494;-79
2023/01/07 01:53:00;;;;;;;5.50;3.10;;;6.90;99.90;;;;;;4196698;28;20467;-78
2023/01/07 01:55:06;;;;;;;8.43;3.50;;;6.90;99.90;;;;;;4201114;28;20533;-79
2023/01/07 01:57:09;;;;;;;5.63;2.93;;;6.90;99.90;;;;;;4203416;28;20465;-77
2023/01/07 01:59:17;;;;;;;4.70;2.70;;;6.90;99.90;;;;;;4206099;28;20554;-80
2023/01/07 02:01:19;;;;;;;4.17;2.80;;;6.90;99.90;;;;;;4201795;28;20654;-78
2023/01/07 02:03:24;;;;;;;4.80;2.90;;;6.90;99.90;;;;;;4204019;28;20478;-77
2023/01/07 02:05:31;;;;;;;3.37;2.37;;;6.90;99.90;;;;;;4200510;28;20462;-76
2023/01/07 02:07:33;;;;;;;4.37;2.57;;;6.90;99.90;;;;;;4203391;28;21015;-78
2023/01/07 02:09:36;;;;;;;5.33;2.70;;;6.80;99.90;;;;;;4202486;28;20594;-78
2023/01/07 02:11:47;;;;;;;5.00;2.63;;;6.80;99.90;;;;;;4201268;28;20481;-76
2023/01/07 02:14:01;;;;;;;5.77;3.13;;;6.80;99.90;;;;;;4201178;28;20499;-77
2023/01/07 02:16:13;;;;;;;4.90;2.40;;;6.90;99.90;;;;;;4200638;28;20467;-76
2023/01/07 02:18:29;;;;;;;4.80;2.63;;;6.80;99.90;;;;;;4204132;28;20908;-78
2023/01/07 02:20:45;;;;;;;4.80;2.40;;;6.90;99.90;;;;;;4209037;28;20604;-78
2023/01/07 02:23:18;;;;;;;4.73;2.90;;;6.80;99.90;;;;;;4206052;28;20474;-77
2023/01/07 02:25:49;;;;;;;3.63;2.03;;;6.80;99.90;;;;;;4184602;28;21012;-79
2023/01/07 02:28:17;;;;;;;3.37;2.40;;;6.80;99.90;;;;;;4204360;28;20869;-79
2023/01/07 02:30:51;;;;;;;2.87;2.10;;;6.80;99.90;;;;;;4206105;28;20569;-77
2023/01/07 02:33:11;;;;;;;5.63;1.83;;;6.80;99.90;;;;;;4201544;28;20470;-77
2023/01/07 02:35:24;;;;;;;2.70;2.00;;;6.90;99.90;;;;;;4201221;28;20563;-79
2023/01/07 02:37:36;;;;;;;3.20;1.90;;;6.90;99.90;;;;;;4205610;28;20549;-77
2023/01/07 02:39:46;;;;;;;2.70;2.03;;;6.90;99.90;;;;;;4202258;28;20548;-76
2023/01/07 02:41:55;;;;;;;3.07;2.00;;;6.90;99.90;;;;;;4204312;28;20459;-76
2023/01/07 02:44:03;;;;;;;2.83;2.10;;;7.00;99.90;;;;;;4198743;28;20593;-76
2023/01/07 02:46:12;;;;;;;2.60;1.80;;;7.00;99.90;;;;;;4204709;28;20493;-76
2023/01/07 02:48:19;;;;;;;2.50;1.90;;;7.00;99.90;;;;;;4202247;28;20554;-78
2023/01/07 02:50:21;;;;;;;2.43;1.80;;;7.00;99.90;;;;;;4199684;28;20479;-76
2023/01/07 02:52:25;;;;;;;2.43;1.80;;;7.00;99.90;;;;;;4196940;28;20505;-78
2023/01/07 02:54:29;;;;;;;2.17;1.77;;;7.00;99.90;;;;;;4202999;28;20470;-79
2023/01/07 02:56:44;;;;;;;1.77;1.67;;;7.00;99.90;;;;;;4205698;28;20858;-79
2023/01/07 02:59:04;;;;;;;2.33;1.77;;;7.00;99.90;;;;;;4204581;28;20502;-79
2023/01/07 03:01:38;;;;;;;2.70;1.80;;;7.10;99.90;;;;;;4201472;28;21011;-79
2023/01/07 03:04:02;;;;;;;2.07;1.57;;;7.10;99.90;;;;;;4180860;28;20502;-79
2023/01/07 03:06:20;;;;;;;1.67;1.57;;;7.10;99.90;;;;;;4203135;28;20478;-77
2023/01/07 03:08:39;;;;;;;4.33;1.90;;;7.10;99.90;;;;;;4199524;28;20549;-79
2023/01/07 03:10:46;;;;;;;1.80;1.50;;;7.10;99.90;;;;;;4201389;28;20498;-79
2023/01/07 03:12:54;;;;;;;2.50;1.87;;;7.10;99.90;;;;;;4200063;28;20491;-79
2023/01/07 03:15:02;;;;;;;1.50;1.30;;;7.10;99.90;;;;;;4202110;28;21249;-79
2023/01/07 03:17:08;;;;;;;3.03;1.80;;;7.10;99.90;;;;;;4197797;28;20482;-78
2023/01/07 03:19:15;;;;;;;2.20;1.73;;;7.10;99.90;;;;;;4203885;28;20463;-78
2023/01/07 03:21:19;;;;;;;2.27;1.73;;;7.10;99.90;;;;;;4206627;28;20469;-78
2023/01/07 03:23:25;;;;;;;2.43;1.90;;;7.10;99.90;;;;;;4206818;28;20577;-78
2023/01/07 03:25:30;;;;;;;2.83;2.00;;;7.20;99.90;;;;;;4205978;28;20603;-77
2023/01/07 03:27:35;;;;;;;4.50;2.07;;;7.20;99.90;;;;;;4205140;28;20479;-79
2023/01/07 03:29:37;;;;;;;3.33;2.07;;;7.10;99.90;;;;;;4203710;28;21005;-78
2023/01/07 03:31:51;;;;;;;2.37;1.83;;;7.20;99.90;;;;;;4198708;28;20923;-78
2023/01/07 03:33:57;;;;;;;3.33;2.13;;;7.10;99.90;;;;;;4204182;28;20483;-78
2023/01/07 03:36:06;;;;;;;4.00;2.20;;;7.20;99.90;;;;;;4205179;28;20484;-78
2023/01/07 03:38:09;;;;;;;5.83;2.00;;;7.20;99.90;;;;;;4198104;28;20826;-78
2023/01/07 03:40:12;;;;;;;2.50;1.80;;;7.20;99.90;;;;;;4204280;28;20565;-78
2023/01/07 03:44:35;;;;;;;3.40;2.10;;;7.20;99.90;;;;;;4204535;28;20514;-77
2023/01/07 03:46:38;;;;;;;2.53;2.10;;;7.20;99.90;;;;;;4207093;28;20458;-78
2023/01/07 03:48:40;;;;;;;4.20;2.10;;;7.20;99.90;;;;;;4202128;28;20618;-77
2023/01/07 03:50:42;;;;;;;3.60;2.20;;;7.20;99.90;;;;;;4203645;28;20545;-78
2023/01/07 03:52:47;;;;;;;2.80;2.03;;;7.10;99.90;;;;;;4204071;28;20455;-79
2023/01/07 03:54:49;;;;;;;4.27;2.27;;;7.20;99.90;;;;;;4201110;28;20821;-77
2023/01/07 03:56:51;;;;;;;2.93;2.20;;;7.20;99.90;;;;;;4201203;28;20455;-79
2023/01/07 03:58:53;;;;;;;3.10;2.30;;;7.20;99.90;;;;;;4200433;28;20478;-78
2023/01/07 04:00:55;;;;;;;3.73;2.40;;;7.20;99.90;;;;;;4202828;28;20466;-77
2023/01/07 04:02:57;;;;;;;3.23;2.50;;;7.20;99.90;;;;;;4199039;28;21076;-77
2023/01/07 04:04:59;;;;;;;2.17;1.87;;;7.10;99.90;;;;;;4204689;28;20571;-78
2023/01/07 04:07:01;;;;;;;2.87;1.97;;;7.20;99.90;;;;;;4200395;28;20472;-76
2023/01/07 04:09:04;;;;;;;3.67;1.87;;;7.20;99.90;;;;;;4200174;28;20462;-76
2023/01/07 04:11:06;;;;;;;2.43;1.77;;;7.20;99.90;;;;;;4203104;28;20516;-77
2023/01/07 04:13:08;;;;;;;2.57;1.83;;;7.20;99.90;;;;;;4207529;28;20450;-76
2023/01/07 04:15:10;;;;;;;1.87;1.67;;;7.20;99.90;;;;;;4199712;28;20467;-76
2023/01/07 04:17:12;;;;;;;2.90;2.10;;;7.30;99.90;;;;;;4199144;28;20457;-75
2023/01/07 04:19:14;;;;;;;4.43;2.10;;;7.30;99.90;;;;;;4200519;28;20483;-76
2023/01/07 04:21:16;;;;;;;3.00;2.00;;;7.30;99.90;;;;;;4198830;28;20512;-75
2023/01/07 04:23:18;;;;;;;2.00;1.50;;;7.30;99.90;;;;;;4200747;28;20557;-77
2023/01/07 04:25:21;;;;;;;2.73;1.67;;;7.30;99.90;;;;;;4200419;28;20585;-75
2023/01/07 04:27:23;;;;;;;2.57;1.60;;;7.30;99.90;;;;;;4201439;28;21366;-75
2023/01/07 04:29:25;;;;;;;2.40;1.67;;;7.40;99.90;;;;;;4201768;28;20906;-76
2023/01/07 04:31:27;;;;;;;3.53;1.50;;;7.40;99.90;;;;;;4206600;28;20863;-76
2023/01/07 04:33:29;;;;;;;2.07;1.40;;;7.50;99.90;;;;;;4197806;28;20806;-75
2023/01/07 04:35:31;;;;;;;2.50;1.60;;;7.50;99.90;;;;;;4200481;28;20479;-75
2023/01/07 04:37:33;;;;;;;2.50;1.50;;;7.50;99.90;;;;;;4201867;28;20558;-76
2023/01/07 04:39:35;;;;;;;1.47;1.23;;;7.50;99.90;;;;;;4198723;28;20995;-77
2023/01/07 04:41:38;;;;;;;2.37;1.37;;;7.60;99.90;;;;;;4197014;28;20452;-76
2023/01/07 04:43:40;;;;;;;1.87;1.30;;;7.60;99.90;;;;;;4200098;28;20456;-76
2023/01/07 04:45:42;;;;;;;1.77;1.50;;;7.60;99.90;;;;;;4204975;28;21602;-77
2023/01/07 04:47:44;;;;;;;1.90;1.30;;;7.60;99.90;;;;;;4204832;28;20558;-76
2023/01/07 04:49:46;;;;;;;1.83;1.40;;;7.60;99.90;;;;;;4198513;28;21012;-75
2023/01/07 04:51:48;;;;;;;1.97;1.50;;;7.60;99.90;;;;;;4199645;28;20460;-75
2023/01/07 04:53:50;;;;;;;1.50;1.40;;;7.60;99.90;;;;;;4196530;28;21002;-76
2023/01/07 04:55:53;;;;;;;1.60;1.50;;;7.60;99.90;;;;;;4199596;28;20489;-75
2023/01/07 04:57:58;;;;;;;1.50;1.40;;;7.70;99.90;;;;;;4200102;28;20348;-75
2023/01/07 05:00:00;;;;;;;2.10;1.50;;;7.70;99.90;;;;;;4194768;28;20551;-75
2023/01/07 05:02:02;;;;;;;2.60;1.57;;;7.60;99.90;;;;;;4202053;28;21031;-76
2023/01/07 05:04:04;;;;;;;1.80;1.30;;;7.70;99.90;;;;;;4197914;28;21200;-75
2023/01/07 05:06:08;;;;;;;1.60;1.47;;;7.70;99.90;;;;;;4195275;28;20298;-77
2023/01/07 05:08:10;;;;;;;2.87;1.70;;;7.70;99.90;;;;;;4195333;28;20455;-75
2023/01/07 05:10:11;;;;;;;2.20;1.60;;;7.70;99.90;;;;;;4207636;28;20522;-76
2023/01/07 05:12:13;;;;;;;3.40;1.50;;;7.70;99.90;;;;;;4207282;28;20644;-78
2023/01/07 05:14:17;;;;;;;2.27;1.50;;;7.70;99.90;;;;;;4207864;28;20451;-77
2023/01/07 05:16:21;;;;;;;3.13;1.73;;;7.70;99.90;;;;;;4206655;28;20989;-76
2023/01/07 05:18:23;;;;;;;2.07;1.47;;;7.70;99.90;;;;;;4204491;28;21025;-76
2023/01/07 05:20:25;;;;;;;1.60;1.30;;;7.80;99.90;;;;;;4202921;28;21178;-76
2023/01/07 05:22:27;;;;;;;2.33;1.30;;;7.70;99.90;;;;;;4197723;28;20448;-76
2023/01/07 05:24:29;;;;;;;1.93;1.30;;;7.70;99.90;;;;;;4208739;28;20532;-77
2023/01/07 05:26:31;;;;;;;2.43;1.40;;;7.80;99.90;;;;;;4198071;28;20456;-76
2023/01/07 05:28:33;;;;;;;1.73;1.50;;;7.70;99.90;;;;;;4197820;28;20459;-78
2023/01/07 05:30:37;;;;;;;2.57;1.50;;;7.80;99.90;;;;;;4198042;28;20562;-77
2023/01/07 05:32:39;;;;;;;2.83;1.50;;;7.80;99.90;;;;;;4203912;28;20496;-76
2023/01/07 05:34:41;;;;;;;2.23;1.57;;;7.80;99.90;;;;;;4206560;28;20496;-77
2023/01/07 05:36:43;;;;;;;1.90;1.20;;;7.80;99.90;;;;;;4206558;28;20497;-76
2023/01/07 05:38:45;;;;;;;1.33;1.20;;;7.80;99.90;;;;;;4201805;28;20464;-77
2023/01/07 05:40:48;;;;;;;3.13;1.50;;;7.80;99.90;;;;;;4197458;28;21000;-77
2023/01/07 05:42:49;;;;;;;2.90;1.30;;;7.80;99.90;;;;;;4197097;28;20547;-77
2023/01/07 05:44:51;;;;;;;2.03;1.30;;;7.80;99.90;;;;;;4200717;28;20479;-77
2023/01/07 05:46:55;;;;;;;2.30;1.57;;;7.90;99.90;;;;;;4202431;28;20467;-77
2023/01/07 05:48:57;;;;;;;2.17;1.27;;;7.90;99.90;;;;;;4203331;28;20448;-76
2023/01/07 05:50:58;;;;;;;1.93;1.23;;;7.90;99.90;;;;;;4202849;28;20507;-76
2023/01/07 05:53:00;;;;;;;1.53;1.20;;;7.90;99.90;;;;;;4209671;28;20237;-77
2023/01/07 05:55:02;;;;;;;2.00;1.33;;;7.90;99.90;;;;;;4203274;28;20562;-76
2023/01/07 05:57:04;;;;;;;1.40;1.10;;;7.90;99.90;;;;;;4205387;28;20886;-76
2023/01/07 05:59:06;;;;;;;2.13;1.10;;;7.90;99.90;;;;;;4205466;28;20551;-76
2023/01/07 06:01:08;;;;;;;1.40;1.00;;;7.90;99.90;;;;;;4206781;28;20507;-76
2023/01/07 06:03:11;;;;;;;1.67;1.07;;;7.90;99.90;;;;;;4199844;28;21007;-77
2023/01/07 06:05:13;;;;;;;2.03;0.90;;;7.90;99.90;;;;;;4203205;28;20563;-76
2023/01/07 06:07:15;;;;;;;3.20;1.10;;;7.90;99.90;;;;;;4199409;28;20455;-77
2023/01/07 06:09:17;;;;;;;2.57;1.43;;;7.90;99.90;;;;;;4208069;28;20546;-77
2023/01/07 06:11:19;;;;;;;1.60;1.07;;;7.90;99.90;;;;;;4197137;28;20506;-77
2023/01/07 06:13:21;;;;;;;2.80;1.17;;;7.90;99.90;;;;;;4199203;28;20494;-76
2023/01/07 06:15:23;;;;;;;2.53;1.30;;;7.90;99.90;;;;;;4200342;28;20487;-76
2023/01/07 06:17:24;;;;;;;2.23;1.30;;;7.90;99.90;;;;;;4204388;28;20834;-76
2023/01/07 06:19:28;;;;;;;2.00;1.13;;;7.90;99.90;;;;;;4202380;28;20901;-78
2023/01/07 06:21:30;;;;;;;1.40;1.10;;;7.90;99.90;;;;;;4207633;28;20255;-76
2023/01/07 06:23:31;;;;;;;2.03;1.50;;;7.90;99.90;;;;;;4202718;28;20458;-76
2023/01/07 06:25:33;;;;;;;1.50;1.10;;;7.90;99.90;;;;;;4206457;28;20480;-76
2023/01/07 06:27:35;;;;;;;1.40;1.20;;;7.80;99.90;;;;;;4201602;28;20906;-76
2023/01/07 06:29:37;;;;;;;1.10;1.00;;;7.80;99.90;;;;;;4199073;28;20888;-76
2023/01/07 06:31:39;;;;;;;1.33;1.10;;;7.90;99.90;;;;;;4202025;28;20514;-77
2023/01/07 06:33:43;;;;;;;1.57;1.10;;;7.80;99.90;;;;;;4201525;28;20483;-76
2023/01/07 06:35:47;;;;;;;1.90;1.10;;;7.80;99.90;;;;;;4200120;28;20455;-76
2023/01/07 06:37:49;;;;;;;2.13;1.03;;;7.80;99.90;;;;;;4202604;28;20463;-76
2023/01/07 06:39:51;;;;;;;2.03;1.07;;;7.80;99.90;;;;;;4202726;28;20980;-77
2023/01/07 06:41:53;;;;;;;1.63;1.20;;;7.80;99.90;;;;;;4200524;28;20470;-78
2023/01/07 06:43:54;;;;;;;1.87;1.10;;;7.80;99.90;;;;;;4203726;28;20538;-76
2023/01/07 06:45:56;;;;;;;2.37;1.40;;;7.80;99.90;;;;;;4196083;28;20575;-76
2023/01/07 06:47:58;;;;;;;2.03;1.07;;;7.80;99.90;;;;;;4198216;28;20506;-76
2023/01/07 06:50:00;;;;;;;2.20;1.20;;;7.80;99.90;;;;;;4200420;28;20470;-77
2023/01/07 06:52:04;;;;;;;1.63;1.30;;;7.80;99.90;;;;;;4205256;28;20953;-76
2023/01/07 06:54:06;;;;;;;1.33;1.10;;;7.80;99.90;;;;;;4197455;28;20478;-75
2023/01/07 06:56:08;;;;;;;1.40;1.10;;;7.80;99.90;;;;;;4206804;28;20457;-76
2023/01/07 06:58:10;;;;;;;1.63;1.00;;;7.70;99.90;;;;;;4203141;28;20542;-78
2023/01/07 07:00:13;;;;;;;1.83;1.30;;;7.70;99.90;;;;;;4202718;28;20574;-78
2023/01/07 07:02:19;;;;;;;2.30;1.40;;;7.70;99.90;;;;;;4201678;28;20454;-80
2023/01/07 07:04:21;;;;;;;1.33;0.97;;;7.70;99.90;;;;;;4200627;28;20468;-76
2023/01/07 07:06:23;;;;;;;1.33;1.00;;;7.70;99.90;;;;;;4194798;28;21343;-77
2023/01/07 07:08:26;;;;;;;1.17;1.03;;;7.70;99.90;;;;;;4199832;28;20497;-77
2023/01/07 07:10:28;;;;;;;1.77;1.00;;;7.70;99.90;;;;;;4201644;28;20663;-78
2023/01/07 07:12:30;;;;;;;2.10;1.10;;;7.70;99.90;;;;;;4201694;28;21166;-77
2023/01/07 07:14:32;;;;;;;1.57;1.20;;;7.70;99.90;;;;;;4200176;28;20467;-76
2023/01/07 07:16:34;;;;;;;1.30;1.00;;;7.70;99.90;;;;;;4199947;28;20535;-76
2023/01/07 07:18:36;;;;;;;2.00;1.13;;;7.70;99.90;;;;;;4205704;28;20447;-76
2023/01/07 07:20:37;;;;;;;1.20;1.00;;;7.70;99.90;;;;;;4206033;28;20562;-76
2023/01/07 07:22:45;;;;;;;0.97;0.77;;;7.70;99.90;;;;;;4200830;28;20937;-76
2023/01/07 07:24:48;;;;;;;1.27;1.00;;;7.70;99.90;;;;;;4196133;28;20482;-77
2023/01/07 07:26:50;;;;;;;1.50;0.93;;;7.70;99.90;;;;;;4201569;28;21048;-78
2023/01/07 07:28:52;;;;;;;1.47;0.90;;;7.70;99.90;;;;;;4204689;28;20479;-78
2023/01/07 07:30:54;;;;;;;1.70;1.00;;;7.70;99.90;;;;;;4198086;28;20486;-78
2023/01/07 07:32:56;;;;;;;1.00;0.83;;;7.70;99.90;;;;;;4201191;28;20458;-76
2023/01/07 07:34:57;;;;;;;0.90;0.80;;;7.70;99.90;;;;;;4202509;28;20940;-77
2023/01/07 07:36:59;;;;;;;2.40;1.07;;;7.70;99.90;;;;;;4200685;28;20459;-77
2023/01/07 07:39:01;;;;;;;2.07;1.30;;;7.60;99.90;;;;;;4203883;28;20550;-77
2023/01/07 07:41:05;;;;;;;2.20;0.97;;;7.60;99.90;;;;;;4200580;28;20467;-78
2023/01/07 07:43:07;;;;;;;1.87;0.90;;;7.60;99.90;;;;;;4195700;28;20937;-76
2023/01/07 07:45:10;;;;;;;1.87;1.00;;;7.60;99.90;;;;;;4195189;28;20995;-76
2023/01/07 07:47:12;;;;;;;1.83;1.00;;;7.60;99.90;;;;;;4201832;28;20467;-76
2023/01/07 07:49:14;;;;;;;1.63;1.33;;;7.60;99.90;;;;;;4198154;28;20475;-78
2023/01/07 07:51:16;;;;;;;2.13;1.40;;;7.60;99.90;;;;;;4195576;28;20514;-76
2023/01/07 07:53:18;;;;;;;1.80;1.27;;;7.60;99.90;;;;;;4202655;28;20552;-76
2023/01/07 07:55:20;;;;;;;2.13;1.30;;;7.60;99.90;;;;;;4196515;28;21045;-78
2023/01/07 07:57:23;;;;;;;1.53;1.30;;;7.60;99.90;;;;;;4201660;28;20473;-77
2023/01/07 07:59:25;;;;;;;2.93;1.30;;;7.60;99.90;;;;;;4200933;28;20542;-76
2023/01/07 08:01:27;;;;;;;1.80;1.23;;;7.60;99.90;;;;;;4203743;28;20868;-75
2023/01/07 08:03:29;;;;;;;1.97;1.20;;;7.60;99.90;;;;;;4199776;28;20831;-77
2023/01/07 08:05:31;;;;;;;3.17;1.67;;;7.60;99.90;;;;;;4202835;28;20572;-76
2023/01/07 08:07:33;;;;;;;1.90;1.30;;;7.60;99.90;;;;;;4196705;28;20479;-76
2023/01/07 08:09:35;;;;;;;2.03;1.37;;;7.60;99.90;;;;;;4203478;28;20477;-77
2023/01/07 08:11:37;;;;;;;2.40;1.40;;;7.60;99.90;;;;;;4202937;28;20941;-75
2023/01/07 08:13:40;;;;;;;1.93;1.10;;;7.60;99.90;;;;;;4198189;28;20463;-75
2023/01/07 08:15:42;;;;;;;1.83;1.33;;;7.60;99.90;;;;;;4200155;28;20974;-77
2023/01/07 08:17:44;;;;;;;2.00;1.30;;;7.60;99.90;;;;;;4201419;28;20940;-77
2023/01/07 08:19:46;;;;;;;1.60;1.20;;;7.60;99.90;;;;;;4204305;28;20542;-77
2023/01/07 08:21:48;;;;;;;3.40;1.20;;;7.60;99.90;;;;;;4200776;28;20483;-75
2023/01/07 08:23:50;;;;;;;1.93;1.30;;;7.60;99.90;;;;;;4207279;28;20542;-78
2023/01/07 08:25:52;;;;;;;1.60;1.30;;;7.60;99.90;;;;;;4204020;28;20483;-76
2023/01/07 08:27:55;;;;;;;1.53;1.20;;;7.60;99.90;;;;;;4204754;28;20495;-76
2023/01/07 08:30:01;;;;;;;3.30;1.43;;;7.60;99.90;;;;;;4203701;28;20510;-79
2023/01/07 08:32:03;;;;;;;2.13;1.20;;;7.60;99.90;;;;;;4198126;28;20452;-77
2023/01/07 08:34:05;;;;;;;1.67;1.23;;;7.60;99.90;;;;;;4199629;28;20448;-79
2023/01/07 08:36:09;;;;;;;1.87;1.40;;;7.60;99.90;;;;;;4196231;28;20452;-75
2023/01/07 08:38:11;;;;;;;2.00;1.23;;;7.60;99.90;;;;;;4202690;28;21045;-78
2023/01/07 08:40:13;;;;;;;1.60;1.27;;;7.60;99.90;;;;;;4200880;28;21252;-78
2023/01/07 08:42:17;;;;;;;2.50;1.50;;;7.60;99.90;;;;;;4197086;28;20452;-78
2023/01/07 08:44:18;;;;;;;3.50;1.80;;;7.60;99.90;;;;;;4197532;28;20542;-76
2023/01/07 08:46:22;;;;;;;2.50;1.50;;;7.70;99.90;;;;;;4199580;28;21059;-76
2023/01/07 08:48:24;;;;;;;1.97;1.20;;;7.70;99.90;;;;;;4200621;28;20490;-76
2023/01/07 08:50:26;;;;;;;2.07;1.30;;;7.70;99.90;;;;;;4205441;28;20506;-78
2023/01/07 08:52:28;;;;;;;1.30;1.17;;;7.70;99.90;;;;;;4201699;28;20487;-76
2023/01/07 08:54:30;;;;;;;2.10;1.30;;;7.70;99.90;;;;;;4205332;28;20456;-76
2023/01/07 08:56:32;;;;;;;1.70;1.10;;;7.80;99.90;;;;;;4204995;28;20843;-76
2023/01/07 08:58:34;;;;;;;1.87;1.10;;;7.70;99.90;;;;;;4197569;28;20447;-76
2023/01/07 09:00:36;;;;;;;1.63;1.40;;;7.80;99.90;;;;;;4200900;28;20558;-77
2023/01/07 09:02:39;;;;;;;2.47;1.80;;;7.80;99.90;;;;;;4199837;28;20839;-77
2023/01/07 09:04:41;;;;;;;2.50;1.80;;;7.90;99.90;;;;;;4197213;28;20918;-78
2023/01/07 09:06:43;;;;;;;1.77;1.40;;;7.90;99.90;;;;;;4201486;28;20562;-78
2023/01/07 09:08:45;;;;;;;2.03;1.63;;;7.90;99.90;;;;;;4203447;28;20528;-79
2023/01/07 09:10:47;;;;;;;2.03;1.53;;;8.00;99.90;;;;;;4204559;28;20503;-76
2023/01/07 09:12:49;;;;;;;2.30;1.63;;;7.90;99.90;;;;;;4202189;28;20459;-77
2023/01/07 09:14:53;;;;;;;4.60;1.80;;;8.00;99.90;;;;;;4208940;28;20501;-76
2023/01/07 09:16:55;;;;;;;3.30;1.80;;;8.20;99.90;;;;;;4204211;28;20443;-77
2023/01/07 09:18:58;;;;;;;3.67;1.93;;;8.10;99.90;;;;;;4204356;28;20498;-76
2023/01/07 09:21:00;;;;;;;2.60;1.50;;;8.10;99.90;;;;;;4205279;28;20229;-78
2023/01/07 09:23:02;;;;;;;4.10;1.30;;;8.10;99.90;;;;;;4207831;28;20450;-78
2023/01/07 09:25:07;;;;;;;6.27;2.40;;;8.10;99.90;;;;;;4207814;28;20469;-76
2023/01/07 09:27:09;;;;;;;2.57;1.53;;;8.20;99.90;;;;;;4205331;28;20513;-77
2023/01/07 09:29:11;;;;;;;2.30;1.50;;;8.20;99.90;;;;;;4208398;28;20462;-77
2023/01/07 09:31:13;;;;;;;1.60;1.10;;;8.20;99.90;;;;;;4203307;28;20287;-77
2023/01/07 09:33:15;;;;;;;1.97;1.10;;;8.30;99.90;;;;;;4204351;28;20455;-76
2023/01/07 09:35:19;;;;;;;2.30;1.40;;;8.30;99.90;;;;;;4202259;28;20291;-77
2023/01/07 09:37:21;;;;;;;1.93;1.23;;;8.40;99.90;;;;;;4198782;28;20810;-76
2023/01/07 09:39:23;;;;;;;1.47;1.20;;;8.50;99.90;;;;;;4199326;28;20283;-75
2023/01/07 09:41:32;;;;;;;1.90;1.30;;;8.60;99.90;;;;;;4200990;28;20859;-77
2023/01/07 09:43:39;;;;;;;1.83;1.20;;;8.70;99.90;;;;;;4203655;28;20204;-76
2023/01/07 09:45:45;;;;;;;2.17;1.63;;;8.80;99.90;;;;;;4203962;28;20198;-77
2023/01/07 09:47:50;;;;;;;2.83;1.47;;;8.80;99.90;;;;;;4201080;28;20197;-76
2023/01/07 09:49:56;;;;;;;2.87;1.27;;;8.90;99.90;;;;;;4203857;28;20768;-76
2023/01/07 09:52:08;;;;;;;1.47;1.10;;;9.00;99.90;;;;;;4205088;28;20226;-78
2023/01/07 09:54:24;;;;;;;2.83;1.23;;;9.00;99.90;;;;;;4202242;28;20538;-79
2023/01/07 09:56:29;;;;;;;1.50;1.07;;;9.20;99.90;;;;;;4202264;28;20199;-76
2023/01/07 09:58:30;;;;;;;1.50;1.03;;;9.20;99.90;;;;;;4204898;28;20740;-76
2023/01/07 10:00:36;;;;;;;1.30;0.90;;;9.20;99.90;;;;;;4217462;28;20909;-77
2023/01/07 10:02:50;;;;;;;1.37;0.97;;;9.30;99.90;;;;;;4200890;28;20207;-80
2023/01/07 10:05:02;;;;;;;1.53;1.00;;;9.30;99.90;;;;;;4204508;28;20574;-80
2023/01/07 10:07:19;;;;;;;2.10;1.27;;;9.40;99.90;;;;;;4207180;28;20247;-79
2023/01/07 10:09:33;;;;;;;1.57;1.30;;;9.40;99.90;;;;;;4206420;28;20236;-75
2023/01/07 10:11:45;;;;;;;2.10;1.30;;;9.40;99.90;;;;;;4203647;28;20212;-79
2023/01/07 10:14:02;;;;;;;2.43;1.33;;;9.40;99.90;;;;;;4205722;28;20339;-78
2023/01/07 10:16:11;;;;;;;4.37;1.20;;;9.50;99.90;;;;;;4219074;28;20217;-76
2023/01/07 10:18:31;;;;;;;2.50;1.20;;;9.60;99.90;;;;;;4207011;28;20317;-75
2023/01/07 10:20:39;;;;;;;3.13;1.60;;;9.60;99.90;;;;;;4203564;28;20233;-76
2023/01/07 10:22:50;;;;;;;1.60;1.07;;;9.60;99.90;;;;;;4201959;28;20214;-77
2023/01/07 10:24:57;;;;;;;2.77;1.30;;;9.60;99.90;;;;;;4204201;28;20238;-75
2023/01/07 10:27:04;;;;;;;1.30;0.77;;;9.60;99.90;;;;;;4200801;28;20225;-76
2023/01/07 10:29:14;;;;;;;1.83;0.80;;;9.60;99.90;;;;;;4204290;28;20254;-77
2023/01/07 10:31:17;;;;;;;2.27;0.83;;;9.60;99.90;;;;;;4203599;28;20225;-75
2023/01/07 10:33:25;;;;;;;1.10;0.90;;;9.70;99.90;;;;;;4199251;28;20660;-76
2023/01/07 10:35:29;;;;;;;1.57;0.80;;;9.70;99.90;;;;;;4200870;28;20207;-77
2023/01/07 10:37:32;;;;;;;0.90;0.80;;;9.70;99.90;;;;;;4204982;28;20206;-77
2023/01/07 10:39:47;;;;;;;1.67;0.80;;;9.70;99.90;;;;;;4200915;28;20233;-76
2023/01/07 10:41:57;;;;;;;2.33;0.80;;;9.70;99.90;;;;;;4199598;28;20199;-74
2023/01/07 10:44:16;;;;;;;1.03;0.70;;;9.80;99.90;;;;;;4196188;28;21832;-79
2023/01/07 10:46:39;;;;;;;0.70;0.70;;;9.80;99.90;;;;;;4200484;28;20215;-75
2023/01/07 10:49:10;;;;;;;2.70;0.80;;;9.80;99.90;;;;;;4205851;28;20285;-75
2023/01/07 10:51:32;;;;;;;1.20;0.80;;;9.80;99.90;;;;;;4197793;28;20650;-75
2023/01/07 10:53:44;;;;;;;1.50;0.90;;;9.80;99.90;;;;;;4203340;28;20207;-76
2023/01/07 10:55:55;;;;;;;1.20;0.83;;;9.80;99.90;;;;;;4197642;28;20206;-77
2023/01/07 10:57:57;;;;;;;3.30;1.13;;;9.80;99.90;;;;;;4204610;28;20298;-75
2023/01/07 11:00:02;;;;;;;2.07;1.20;;;9.80;99.90;;;;;;4199650;28;20256;-74
2023/01/07 11:02:04;;;;;;;1.40;1.00;;;9.80;99.90;;;;;;4197569;28;20291;-76